createdAt,value
2018-06-09T00:01:48.887Z,10.72
2018-06-09T00:04:17.391Z,10.18
2018-06-09T00:06:45.914Z,10.80
2018-06-09T00:09:14.674Z,10.68
2018-06-09T00:11:43.206Z,10.55
2018-06-09T00:14:11.746Z,10.10
2018-06-09T00:16:40.290Z,10.30
2018-06-09T00:19:08.848Z,10.18
2018-06-09T00:21:37.347Z,10.53
2018-06-09T00:24:05.878Z,9.88
2018-06-09T00:26:34.409Z,10.13
2018-06-09T00:29:03.161Z,10.25
2018-06-09T00:31:31.671Z,11.25
2018-06-09T00:34:00.203Z,10.58
2018-06-09T00:36:29.169Z,11.25
2018-06-09T00:38:57.687Z,10.50
2018-06-09T00:41:26.208Z,10.65
2018-06-09T00:43:54.759Z,10.85
2018-06-09T00:46:23.677Z,9.83
2018-06-09T00:48:52.183Z,10.05
2018-06-09T00:51:20.684Z,10.85
2018-06-09T00:53:49.212Z,11.05
2018-06-09T00:56:28.923Z,11.05
2018-06-09T00:58:57.414Z,11.20
2018-06-09T01:01:25.909Z,11.57
2018-06-09T01:03:54.417Z,10.93
2018-06-09T01:06:22.891Z,10.90
2018-06-09T01:08:51.376Z,11.20
2018-06-09T01:11:20.831Z,11.53
2018-06-09T01:13:49.341Z,10.40
2018-06-09T01:16:17.821Z,11.48
2018-06-09T01:18:45.978Z,10.60
2018-06-09T01:21:14.459Z,12.37
2018-06-09T01:23:42.983Z,11.65
2018-06-09T01:26:11.464Z,11.48
2018-06-09T01:28:39.979Z,11.60
2018-06-09T01:31:08.695Z,11.10
2018-06-09T01:33:37.188Z,11.38
2018-06-09T01:36:05.727Z,11.33
2018-06-09T01:38:34.223Z,11.00
2018-06-09T01:41:02.719Z,11.43
2018-06-09T01:43:31.230Z,10.00
2018-06-09T01:45:59.726Z,12.35
2018-06-09T01:48:28.229Z,12.07
2018-06-09T01:50:56.820Z,11.97
2018-06-09T01:53:25.322Z,11.22
2018-06-09T01:55:53.833Z,11.45
2018-06-09T01:58:22.356Z,12.45
2018-06-09T02:00:50.871Z,11.85
2018-06-09T02:03:19.078Z,11.55
2018-06-09T02:05:47.613Z,10.98
2018-06-09T02:08:16.134Z,12.03
2018-06-09T02:10:44.639Z,10.43
2018-06-09T02:13:13.150Z,12.15
2018-06-09T02:15:41.691Z,11.43
2018-06-09T02:18:10.191Z,11.70
2018-06-09T02:20:38.716Z,11.97
2018-06-09T02:23:08.444Z,11.83
2018-06-09T02:25:37.000Z,10.50
2018-06-09T02:28:05.512Z,11.65
2018-06-09T02:30:34.058Z,12.25
2018-06-09T02:33:02.602Z,12.40
2018-06-09T02:35:31.145Z,11.00
2018-06-09T02:37:59.711Z,10.80
2018-06-09T02:40:28.265Z,10.25
2018-06-09T02:42:56.767Z,9.75
2018-06-09T02:45:25.503Z,10.75
2018-06-09T02:47:54.024Z,11.80
2018-06-09T02:50:22.555Z,11.63
2018-06-09T02:52:51.359Z,11.20
2018-06-09T02:55:19.880Z,10.40
2018-06-09T02:57:48.402Z,11.00
2018-06-09T03:00:16.939Z,11.03
2018-06-09T03:02:45.436Z,11.40
2018-06-09T03:05:13.960Z,10.88
2018-06-09T03:07:42.472Z,11.28
2018-06-09T03:10:11.031Z,10.38
2018-06-09T03:12:39.566Z,11.45
2018-06-09T03:15:08.090Z,11.25
2018-06-09T03:17:36.587Z,10.70
2018-06-09T03:20:05.107Z,10.65
2018-06-09T03:22:33.586Z,10.70
2018-06-09T03:25:02.133Z,11.78
2018-06-09T03:27:30.650Z,11.33
2018-06-09T03:29:59.215Z,10.45
2018-06-09T03:32:27.741Z,11.50
2018-06-09T03:34:56.254Z,10.05
2018-06-09T03:37:24.784Z,10.50
2018-06-09T03:39:53.451Z,11.10
2018-06-09T03:42:21.963Z,10.75
2018-06-09T03:44:50.491Z,11.25
2018-06-09T03:47:19.014Z,10.98
2018-06-09T03:49:47.543Z,11.25
2018-06-09T03:52:16.007Z,12.07
2018-06-09T03:54:44.547Z,11.45
2018-06-09T03:57:13.029Z,12.05
2018-06-09T03:59:41.199Z,11.68
2018-06-09T04:02:09.686Z,12.13
2018-06-09T04:04:38.160Z,11.43
2018-06-09T04:07:06.670Z,11.53
2018-06-09T04:09:35.144Z,12.55
2018-06-09T04:12:03.663Z,11.20
2018-06-09T04:14:32.138Z,11.97
2018-06-09T04:17:00.638Z,13.38
2018-06-09T04:19:29.136Z,13.13
2018-06-09T04:21:57.668Z,13.43
2018-06-09T04:24:26.151Z,14.75
2018-06-09T04:26:54.650Z,13.70
2018-06-09T04:29:23.131Z,14.03
2018-06-09T04:31:51.641Z,14.43
2018-06-09T04:34:20.127Z,14.75
2018-06-09T04:36:48.632Z,15.23
2018-06-09T04:39:17.114Z,13.55
2018-06-09T04:41:45.595Z,14.78
2018-06-09T04:44:14.067Z,15.05
2018-06-09T04:46:42.553Z,14.78
2018-06-09T04:49:11.079Z,15.18
2018-06-09T04:51:39.606Z,16.32
2018-06-09T04:54:07.792Z,14.70
2018-06-09T04:56:36.324Z,16.40
2018-06-09T04:59:04.863Z,16.40
2018-06-09T05:01:33.400Z,14.73
2018-06-09T05:04:02.031Z,16.20
2018-06-09T05:06:30.566Z,15.58
2018-06-09T05:08:59.051Z,17.17
2018-06-09T05:11:27.591Z,16.50
2018-06-09T05:13:56.077Z,17.60
2018-06-09T05:16:24.606Z,19.42
2018-06-09T05:18:53.141Z,19.87
2018-06-09T05:21:22.071Z,19.35
2018-06-09T05:23:50.590Z,19.60
2018-06-09T05:26:19.134Z,20.32
2018-06-09T05:28:47.652Z,21.27
2018-06-09T05:31:16.169Z,21.48
2018-06-09T05:33:44.690Z,24.00
2018-06-09T05:36:13.214Z,24.40
2018-06-09T05:38:41.721Z,25.05
2018-06-09T05:41:10.267Z,24.57
2018-06-09T05:43:38.775Z,26.20
2018-06-09T05:46:07.297Z,23.00
2018-06-09T05:48:35.822Z,21.75
2018-06-09T05:51:04.308Z,22.30
2018-06-09T05:53:32.819Z,23.62
2018-06-09T05:56:01.308Z,26.55
2018-06-09T05:58:29.488Z,25.62
2018-06-09T06:00:57.991Z,25.82
2018-06-09T06:03:26.497Z,25.60
2018-06-09T06:05:55.020Z,25.12
2018-06-09T06:08:23.558Z,25.12
2018-06-09T06:10:52.043Z,24.75
2018-06-09T06:13:20.557Z,26.20
2018-06-09T06:15:49.038Z,22.87
2018-06-09T06:18:17.531Z,21.65
2018-06-09T06:20:46.004Z,27.80
2018-06-09T06:23:14.492Z,23.83
2018-06-09T06:25:42.932Z,27.70
2018-06-09T06:28:11.395Z,31.65
2018-06-09T06:30:39.881Z,27.55
2018-06-09T06:33:08.382Z,28.17
2018-06-09T06:35:36.851Z,27.13
2018-06-09T06:38:05.652Z,26.85
2018-06-09T06:40:34.267Z,25.12
2018-06-09T06:43:03.134Z,24.87
2018-06-09T06:45:31.615Z,31.52
2018-06-09T06:48:00.127Z,19.52
2018-06-09T06:50:28.683Z,31.60
2018-06-09T06:52:57.188Z,31.45
2018-06-09T06:55:25.708Z,29.55
2018-06-09T06:57:54.260Z,31.00
2018-06-09T07:00:22.780Z,28.77
2018-06-09T07:02:51.292Z,31.25
2018-06-09T07:05:19.823Z,30.95
2018-06-09T07:07:48.329Z,33.40
2018-06-09T07:10:16.875Z,32.63
2018-06-09T07:12:45.387Z,32.93
2018-06-09T07:15:13.879Z,32.70
2018-06-09T07:17:42.427Z,32.67
2018-06-09T07:20:10.946Z,31.17
2018-06-09T07:22:39.439Z,31.48
2018-06-09T07:25:07.947Z,28.07
2018-06-09T07:27:36.524Z,28.98
2018-06-09T07:30:05.488Z,27.05
2018-06-09T07:32:33.990Z,26.40
2018-06-09T07:35:02.494Z,25.85
2018-06-09T07:37:31.002Z,24.75
2018-06-09T07:39:59.552Z,24.07
2018-06-09T07:42:27.982Z,24.70
2018-06-09T07:44:56.464Z,24.37
2018-06-09T07:47:24.949Z,23.75
2018-06-09T07:49:53.486Z,22.58
2018-06-09T07:52:28.342Z,22.55
2018-06-09T07:54:56.856Z,22.13
2018-06-09T07:57:25.414Z,23.40
2018-06-09T07:59:53.900Z,22.70
2018-06-09T08:02:22.426Z,25.02
2018-06-09T08:04:50.935Z,22.82
2018-06-09T08:07:19.404Z,22.40
2018-06-09T08:09:48.794Z,19.02
2018-06-09T08:12:17.281Z,21.65
2018-06-09T08:14:45.763Z,21.25
2018-06-09T08:17:14.251Z,20.75
2018-06-09T08:19:42.815Z,21.77
2018-06-09T08:22:11.287Z,21.15
2018-06-09T08:24:39.771Z,19.80
2018-06-09T08:27:08.238Z,18.85
2018-06-09T08:29:36.710Z,21.50
2018-06-09T08:32:05.216Z,19.98
2018-06-09T08:34:33.755Z,20.95
2018-06-09T08:37:02.293Z,18.67
2018-06-09T08:39:30.875Z,19.82
2018-06-09T08:41:59.360Z,19.57
2018-06-09T08:44:27.847Z,18.42
2018-06-09T08:46:56.355Z,19.70
2018-06-09T08:49:24.899Z,20.85
2018-06-09T08:51:53.427Z,20.43
2018-06-09T08:54:21.930Z,19.80
2018-06-09T08:56:50.502Z,19.45
2018-06-09T08:59:19.038Z,20.88
2018-06-09T09:01:47.598Z,18.55
2018-06-09T09:04:16.133Z,16.73
2018-06-09T09:06:45.023Z,19.35
2018-06-09T09:09:13.963Z,19.05
2018-06-09T09:11:42.587Z,16.35
2018-06-09T09:14:11.292Z,15.48
2018-06-09T09:16:39.909Z,16.52
2018-06-09T09:19:08.784Z,14.43
2018-06-09T09:21:37.420Z,15.18
2018-06-09T09:24:06.136Z,14.73
2018-06-09T09:26:34.763Z,17.23
2018-06-09T09:29:03.348Z,14.78
2018-06-09T09:31:32.001Z,13.40
2018-06-09T09:34:00.637Z,13.98
2018-06-09T09:36:29.260Z,12.93
2018-06-09T09:38:57.938Z,12.60
2018-06-09T09:41:26.643Z,14.20
2018-06-09T09:43:55.322Z,15.38
2018-06-09T09:46:24.038Z,13.38
2018-06-09T09:48:52.717Z,11.95
2018-06-09T09:51:21.248Z,12.60
2018-06-09T09:53:49.948Z,11.83
2018-06-09T09:56:18.462Z,13.50
2018-06-09T09:58:46.997Z,13.18
2018-06-09T10:01:15.557Z,11.70
2018-06-09T10:03:44.095Z,12.40
2018-06-09T10:06:12.668Z,11.12
2018-06-09T10:08:41.170Z,11.93
2018-06-09T10:11:09.716Z,12.53
2018-06-09T10:13:38.283Z,12.98
2018-06-09T10:16:06.827Z,12.25
2018-06-09T10:18:35.350Z,11.48
2018-06-09T10:21:03.893Z,11.68
2018-06-09T10:23:32.390Z,9.40
2018-06-09T10:26:00.909Z,11.48
2018-06-09T10:28:29.456Z,12.23
2018-06-09T10:30:57.990Z,12.10
2018-06-09T10:33:26.166Z,10.70
2018-06-09T10:35:54.707Z,10.72
2018-06-09T10:38:23.203Z,10.75
2018-06-09T10:40:51.691Z,11.20
2018-06-09T10:43:20.186Z,9.45
2018-06-09T10:45:48.703Z,10.48
2018-06-09T10:48:17.219Z,10.20
2018-06-09T10:50:45.714Z,12.00
2018-06-09T10:53:14.223Z,10.95
2018-06-09T10:55:42.951Z,9.80
2018-06-09T10:58:11.505Z,9.85
2018-06-09T11:00:40.013Z,10.68
2018-06-09T11:03:08.547Z,10.48
2018-06-09T11:05:37.099Z,10.88
2018-06-09T11:08:05.617Z,8.73
2018-06-09T11:10:34.132Z,9.78
2018-06-09T11:13:02.793Z,9.93
2018-06-09T11:15:31.397Z,10.32
2018-06-09T11:17:59.904Z,10.20
2018-06-09T11:20:28.399Z,9.18
2018-06-09T11:22:56.902Z,9.15
2018-06-09T11:25:25.403Z,11.20
2018-06-09T11:27:53.958Z,9.10
2018-06-09T11:30:22.419Z,10.82
2018-06-09T11:32:50.967Z,9.95
2018-06-09T11:35:19.750Z,8.78
2018-06-09T11:37:48.271Z,10.68
2018-06-09T11:40:16.443Z,9.85
2018-06-09T11:42:45.012Z,9.93
2018-06-09T11:45:13.513Z,10.38
2018-06-09T11:47:42.023Z,10.05
2018-06-09T11:50:10.549Z,10.23
2018-06-09T11:52:39.072Z,9.48
2018-06-09T11:55:07.557Z,10.60
2018-06-09T11:57:36.104Z,9.55
2018-06-09T12:00:04.723Z,10.05
2018-06-09T12:02:33.267Z,8.28
2018-06-09T12:05:01.762Z,9.83
2018-06-09T12:07:30.315Z,9.78
2018-06-09T12:09:58.827Z,8.85
2018-06-09T12:12:27.402Z,8.88
2018-06-09T12:14:55.917Z,8.98
2018-06-09T12:17:24.432Z,9.58
2018-06-09T12:19:52.942Z,9.08
2018-06-09T12:22:21.481Z,11.22
2018-06-09T12:24:50.005Z,9.45
2018-06-09T12:27:18.580Z,8.60
2018-06-09T12:29:47.091Z,8.78
2018-06-09T12:32:15.599Z,9.08
2018-06-09T12:34:44.104Z,8.95
2018-06-09T12:37:12.825Z,8.63
2018-06-09T12:39:41.787Z,9.00
2018-06-09T12:42:10.379Z,9.75
2018-06-09T12:44:38.895Z,9.05
2018-06-09T12:47:07.419Z,10.20
2018-06-09T12:49:35.962Z,11.83
2018-06-09T12:52:04.447Z,10.32
2018-06-09T12:54:32.951Z,11.08
2018-06-09T12:57:01.437Z,11.57
2018-06-09T12:59:29.958Z,10.48
2018-06-09T13:01:58.412Z,10.88
2018-06-09T13:04:26.895Z,10.05
2018-06-09T13:06:55.380Z,8.63
2018-06-09T13:09:23.896Z,8.28
2018-06-09T13:11:52.351Z,6.40
2018-06-09T13:14:20.863Z,7.80
2018-06-09T13:16:49.330Z,8.05
2018-06-09T13:19:18.003Z,4.25
2018-06-09T13:21:46.655Z,5.12
2018-06-09T13:24:15.274Z,3.35
2018-06-09T13:26:43.855Z,2.60
2018-06-09T13:29:12.358Z,2.00
2018-06-09T13:31:41.525Z,3.62
2018-06-09T13:34:10.428Z,5.78
2018-06-09T13:36:40.132Z,5.65
2018-06-09T13:39:10.215Z,6.40
2018-06-09T13:41:40.731Z,6.40
2018-06-09T13:44:20.598Z,7.55
2018-06-09T13:47:09.968Z,8.60
2018-06-09T13:49:38.646Z,10.38
2018-06-09T13:52:07.180Z,8.90
2018-06-09T13:54:35.910Z,8.13
2018-06-09T13:57:04.536Z,7.37
2018-06-09T13:59:33.048Z,8.13
2018-06-09T14:02:01.551Z,8.48
2018-06-09T14:04:30.123Z,10.28
2018-06-09T14:06:58.679Z,8.23
2018-06-09T14:09:27.251Z,8.18
2018-06-09T14:11:56.076Z,8.43
2018-06-09T14:14:24.708Z,7.92
2018-06-09T14:16:54.084Z,9.00
2018-06-09T14:19:22.660Z,7.58
2018-06-09T14:21:51.248Z,6.15
2018-06-09T14:24:20.444Z,7.62
2018-06-09T14:26:49.078Z,6.78
2018-06-09T14:29:17.924Z,7.15
2018-06-09T14:31:46.419Z,7.03
2018-06-09T14:34:15.028Z,7.37
2018-06-09T14:36:45.237Z,7.42
2018-06-09T14:39:13.879Z,6.58
2018-06-09T14:42:01.304Z,6.53
2018-06-09T14:44:29.815Z,6.78
2018-06-09T14:46:58.380Z,6.87
2018-06-09T14:49:28.212Z,6.20
2018-06-09T14:54:55.017Z,6.62
2018-06-09T14:57:23.751Z,5.97
2018-06-09T14:59:52.344Z,6.72
2018-06-09T15:02:21.180Z,7.08
2018-06-09T15:04:49.685Z,6.90
2018-06-09T15:07:18.207Z,6.78
2018-06-09T15:09:46.925Z,7.85
2018-06-09T15:12:16.280Z,24.25
2018-06-09T15:14:44.791Z,8.10
2018-06-09T15:17:13.279Z,7.75
2018-06-09T15:19:41.824Z,7.90
2018-06-09T15:22:10.335Z,6.62
2018-06-09T15:24:38.795Z,6.22
2018-06-09T15:27:07.338Z,6.65
2018-06-09T15:29:35.812Z,6.15
2018-06-09T15:32:04.328Z,5.50
2018-06-09T15:34:32.941Z,6.70
2018-06-09T15:37:01.658Z,5.95
2018-06-09T15:39:30.171Z,6.20
2018-06-09T15:41:58.800Z,5.90
2018-06-09T15:44:27.273Z,5.80
2018-06-09T15:46:55.787Z,5.37
2018-06-09T15:49:24.280Z,5.33
2018-06-09T15:51:52.797Z,5.45
2018-06-09T15:54:21.267Z,5.17
2018-06-09T15:56:49.752Z,4.97
2018-06-09T15:59:18.228Z,6.15
2018-06-09T16:01:46.775Z,5.25
2018-06-09T16:04:15.223Z,5.35
2018-06-09T16:06:43.740Z,5.03
2018-06-09T16:09:12.270Z,5.40
2018-06-09T16:11:40.747Z,5.87
2018-06-09T16:14:09.280Z,5.17
2018-06-09T16:16:37.864Z,5.40
2018-06-09T16:19:06.393Z,5.90
2018-06-09T16:21:35.068Z,4.95
2018-06-09T16:24:03.657Z,5.60
2018-06-09T16:26:32.253Z,5.55
2018-06-09T16:29:00.733Z,5.70
2018-06-09T16:31:29.301Z,6.45
2018-06-09T16:33:57.769Z,5.40
2018-06-09T16:36:26.260Z,5.97
2018-06-09T16:38:54.466Z,6.05
2018-06-09T16:41:23.560Z,6.00
2018-06-09T16:43:52.182Z,6.58
2018-06-09T16:46:20.919Z,6.78
2018-06-09T16:48:50.475Z,6.28
2018-06-09T16:51:19.380Z,6.87
2018-06-09T16:53:48.030Z,6.55
2018-06-09T16:56:16.724Z,6.45
2018-06-09T16:58:45.372Z,6.37
2018-06-09T17:01:15.189Z,5.58
2018-06-09T17:03:43.750Z,6.95
2018-06-09T17:06:12.247Z,8.05
2018-06-09T17:08:40.760Z,6.12
2018-06-09T17:11:09.271Z,6.62
2018-06-09T17:13:37.824Z,7.40
2018-06-09T17:16:07.573Z,7.10
2018-06-09T17:18:36.118Z,7.12
2018-06-09T17:21:04.622Z,7.33
2018-06-09T17:23:33.135Z,6.65
2018-06-09T17:26:01.639Z,7.05
2018-06-09T17:28:31.561Z,7.90
2018-06-09T17:31:00.163Z,8.40
2018-06-09T17:33:28.821Z,7.17
2018-06-09T17:35:57.311Z,7.60
2018-06-09T17:38:26.100Z,8.03
2018-06-09T17:40:54.627Z,8.00
2018-06-09T17:43:23.128Z,8.65
2018-06-09T17:45:52.296Z,8.55
2018-06-09T17:48:21.894Z,8.93
2018-06-09T17:50:50.359Z,9.45
2018-06-09T17:53:19.064Z,10.28
2018-06-09T17:55:47.515Z,8.35
2018-06-09T17:58:15.983Z,9.68
2018-06-09T18:00:45.547Z,9.10
2018-06-09T18:03:14.015Z,7.90
2018-06-09T18:05:42.480Z,9.43
2018-06-09T18:08:10.993Z,9.25
2018-06-09T18:10:39.484Z,8.95
2018-06-09T18:13:07.985Z,9.50
2018-06-09T18:15:36.499Z,9.73
2018-06-09T18:18:05.061Z,9.90
2018-06-09T18:20:33.637Z,10.40
2018-06-09T18:23:02.258Z,9.40
2018-06-09T18:25:30.738Z,10.70
2018-06-09T18:27:59.224Z,9.93
2018-06-09T18:30:27.707Z,9.95
2018-06-09T18:32:56.216Z,9.13
2018-06-09T18:35:24.804Z,9.55
2018-06-09T18:37:54.704Z,9.60
2018-06-09T18:40:24.276Z,8.50
2018-06-09T18:42:53.139Z,9.05
2018-06-09T18:45:22.248Z,44.50
2018-06-09T18:47:50.751Z,11.15
2018-06-09T18:50:20.189Z,9.73
2018-06-09T18:52:49.414Z,8.10
2018-06-09T18:55:18.556Z,9.10
2018-06-09T18:57:47.476Z,8.55
2018-06-09T19:00:16.856Z,8.18
2018-06-09T19:02:45.618Z,8.83
2018-06-09T19:05:14.374Z,9.25
2018-06-09T19:07:42.892Z,8.40
2018-06-09T19:10:11.755Z,9.00
2018-06-09T19:12:40.387Z,9.85
2018-06-09T19:15:10.293Z,9.63
2018-06-09T19:17:39.069Z,9.18
2018-06-09T19:20:07.603Z,9.38
2018-06-09T19:22:36.827Z,8.60
2018-06-09T19:25:06.541Z,8.78
2018-06-09T19:27:35.764Z,8.68
2018-06-09T19:30:07.683Z,8.20
2018-06-09T19:32:37.219Z,9.93
2018-06-09T19:35:07.266Z,9.58
2018-06-09T19:37:37.824Z,9.43
2018-06-09T19:40:07.140Z,10.58
2018-06-09T19:42:35.901Z,9.08
2018-06-09T19:45:05.492Z,9.70
2018-06-09T19:47:36.504Z,10.80
2018-06-09T19:50:05.406Z,9.40
2018-06-09T19:52:34.764Z,9.03
2018-06-09T19:55:03.247Z,9.70
2018-06-09T19:57:31.746Z,9.00
2018-06-09T20:00:00.187Z,9.20
2018-06-09T20:02:28.655Z,9.08
2018-06-09T20:04:57.135Z,10.13
2018-06-09T20:07:25.595Z,19.07
2018-06-09T20:09:55.543Z,10.65
2018-06-09T20:12:29.419Z,9.85
2018-06-09T20:15:00.165Z,9.10
2018-06-09T20:17:32.148Z,10.28
2018-06-09T20:20:01.285Z,10.30
2018-06-09T20:22:31.512Z,9.68
2018-06-09T20:25:04.886Z,10.05
2018-06-09T20:27:35.020Z,10.35
2018-06-09T20:30:04.490Z,10.38
2018-06-09T20:32:34.720Z,10.13
2018-06-09T20:35:05.048Z,10.40
2018-06-09T20:37:34.299Z,10.55
2018-06-09T20:40:04.187Z,11.18
2018-06-09T20:42:33.602Z,11.48
2018-06-09T20:45:04.287Z,10.50
2018-06-09T20:47:32.767Z,13.15
2018-06-09T20:50:01.385Z,12.05
2018-06-09T20:52:29.959Z,12.78
2018-06-09T20:54:58.484Z,11.48
2018-06-09T20:57:28.116Z,11.68
2018-06-09T20:59:56.752Z,11.65
2018-06-09T21:02:28.304Z,12.40
2018-06-09T21:04:57.728Z,12.73
2018-06-09T21:07:27.138Z,13.00
2018-06-09T21:09:55.995Z,14.05
2018-06-09T21:12:24.479Z,14.35
2018-06-09T21:14:55.253Z,14.28
2018-06-09T21:17:24.263Z,13.93
2018-06-09T21:19:53.299Z,13.48
2018-06-09T21:22:22.023Z,13.03
2018-06-09T21:24:51.195Z,12.75
2018-06-09T21:27:25.579Z,13.88
2018-06-09T21:29:58.398Z,13.65
2018-06-09T21:32:27.878Z,13.58
2018-06-09T21:35:12.016Z,14.10
2018-06-09T21:37:47.206Z,12.88
2018-06-09T21:40:21.302Z,12.70
2018-06-09T21:42:56.024Z,13.38
2018-06-09T21:45:28.840Z,13.62
2018-06-09T21:47:57.668Z,13.13
2018-06-09T21:50:26.334Z,12.45
2018-06-09T21:52:54.966Z,13.62
2018-06-09T21:55:24.178Z,14.60
2018-06-09T21:57:52.910Z,13.45
2018-06-09T22:00:22.187Z,12.85
2018-06-09T22:02:51.459Z,12.90
2018-06-09T22:05:20.930Z,12.55
2018-06-09T22:07:50.008Z,13.83
2018-06-09T22:10:18.887Z,13.13
2018-06-09T22:12:48.305Z,13.22
2018-06-09T22:15:16.897Z,13.10
2018-06-09T22:17:45.930Z,15.13
2018-06-09T22:20:14.618Z,12.70
2018-06-09T22:22:44.217Z,13.60
2018-06-09T22:25:13.356Z,13.58
2018-06-09T22:27:42.707Z,13.00
2018-06-09T22:30:12.097Z,13.15
2018-06-09T22:32:41.163Z,14.03
2018-06-09T22:35:10.067Z,14.10
2018-06-09T22:37:39.032Z,13.38
2018-06-09T22:40:07.606Z,13.32
2018-06-09T22:42:36.386Z,14.05
2018-06-09T22:45:05.371Z,13.90
2018-06-09T22:47:34.327Z,12.53
2018-06-09T22:50:03.867Z,13.25
2018-06-09T22:52:32.656Z,12.53
2018-06-09T22:55:02.256Z,12.63
2018-06-09T22:57:31.037Z,12.60
2018-06-09T22:59:59.554Z,13.95
2018-06-09T23:02:36.471Z,13.32
2018-06-09T23:05:05.195Z,12.63
2018-06-09T23:07:33.898Z,14.20
2018-06-09T23:10:02.614Z,12.78
2018-06-09T23:12:31.551Z,13.00
2018-06-09T23:15:00.110Z,14.13
2018-06-09T23:17:28.678Z,13.62
2018-06-09T23:19:57.211Z,15.32
2018-06-09T23:22:25.831Z,14.68
2018-06-09T23:24:54.346Z,13.33
2018-06-09T23:27:22.900Z,13.77
2018-06-09T23:29:51.441Z,14.85
2018-06-09T23:32:20.123Z,16.03
2018-06-09T23:34:48.647Z,14.27
2018-06-09T23:37:17.228Z,14.95
2018-06-09T23:39:45.764Z,12.93
2018-06-09T23:42:14.308Z,14.10
2018-06-09T23:44:42.973Z,14.30
2018-06-09T23:47:11.599Z,14.07
2018-06-09T23:49:40.228Z,14.00
2018-06-09T23:52:09.146Z,13.83
2018-06-09T23:54:38.016Z,12.53
2018-06-09T23:57:06.731Z,14.83
2018-06-09T23:59:35.423Z,14.07
